Time;durP1;ratioP1;P1;durP2;ratioP2;P2;SDS_P1;SDS_P2;PMS_P1;PMS_P2;Temp;Humidity;BMP_temperature;BMP_pressure;BME280_temperature;BME280_humidity;BME280_pressure;Samples;Min_cycle;Max_cycle;Signal;HPM_P1;HPM_P2
2023/06/22 00:00:26;;;;;;;12.00;8.90;;;19.90;99.90;;;;;;5008713;28;20116;-74
2023/06/22 00:02:54;;;;;;;14.27;9.48;;;19.90;99.90;;;;;;5006767;28;20058;-73
2023/06/22 00:05:21;;;;;;;19.42;8.98;;;19.90;99.90;;;;;;5009059;28;20038;-74
2023/06/22 00:07:50;;;;;;;14.05;8.80;;;19.90;99.90;;;;;;5012025;28;20049;-74
2023/06/22 00:10:17;;;;;;;14.63;9.15;;;19.90;99.90;;;;;;5011075;28;20042;-74
2023/06/22 00:12:45;;;;;;;12.30;9.07;;;19.80;99.90;;;;;;5011625;28;20593;-74
2023/06/22 00:15:12;;;;;;;11.02;8.73;;;19.80;99.90;;;;;;5010090;28;20453;-74
2023/06/22 00:17:39;;;;;;;13.65;9.25;;;19.80;99.90;;;;;;5010409;28;20050;-73
2023/06/22 00:20:09;;;;;;;11.63;8.98;;;19.80;99.90;;;;;;4998451;28;20097;-74
2023/06/22 00:22:38;;;;;;;12.45;8.40;;;19.70;99.90;;;;;;5011846;28;20053;-74
2023/06/22 00:25:09;;;;;;;12.35;8.88;;;19.70;99.90;;;;;;4994519;28;20385;-74
2023/06/22 00:27:37;;;;;;;10.65;8.60;;;19.70;99.90;;;;;;4999038;28;20501;-74
2023/06/22 00:30:07;;;;;;;10.65;8.23;;;19.70;99.90;;;;;;5012747;28;20056;-74
2023/06/22 00:32:34;;;;;;;14.65;9.55;;;19.70;99.90;;;;;;4994937;28;20109;-74
2023/06/22 00:35:02;;;;;;;11.90;7.88;;;19.70;99.90;;;;;;5010958;28;20058;-73
2023/06/22 00:37:29;;;;;;;11.25;7.65;;;19.70;99.90;;;;;;4994522;28;20092;-73
2023/06/22 00:39:57;;;;;;;12.55;8.82;;;19.70;99.90;;;;;;4991071;28;20054;-73
2023/06/22 00:42:25;;;;;;;11.57;8.07;;;19.70;99.90;;;;;;4995407;28;20097;-73
2023/06/22 00:44:52;;;;;;;11.55;8.10;;;19.70;99.90;;;;;;4977880;28;20049;-74
2023/06/22 00:47:20;;;;;;;11.38;8.32;;;19.70;99.90;;;;;;4993592;28;20498;-74
2023/06/22 00:49:53;;;;;;;11.57;8.45;;;19.70;99.90;;;;;;5010866;28;20058;-74
2023/06/22 00:52:28;;;;;;;11.77;8.25;;;19.70;99.90;;;;;;5010253;28;20141;-74
2023/06/22 00:54:57;;;;;;;12.77;8.75;;;19.70;99.90;;;;;;4995827;28;20346;-74
2023/06/22 00:57:27;;;;;;;11.55;7.97;;;19.60;99.90;;;;;;5000801;28;20413;-73
2023/06/22 00:59:56;;;;;;;10.30;7.80;;;19.70;99.90;;;;;;4998112;28;20085;-74
2023/06/22 01:02:23;;;;;;;10.35;8.18;;;19.60;99.90;;;;;;5012869;28;20041;-74
2023/06/22 01:04:51;;;;;;;10.70;8.13;;;19.60;99.90;;;;;;4993849;28;20276;-74
2023/06/22 01:07:40;;;;;;;11.65;8.68;;;19.60;99.90;;;;;;5009182;28;20061;-74
2023/06/22 01:10:14;;;;;;;14.73;8.98;;;19.60;99.90;;;;;;5008444;28;20062;-74
2023/06/22 01:12:50;;;;;;;10.73;8.35;;;19.50;99.90;;;;;;4990081;28;20141;-74
2023/06/22 01:15:33;;;;;;;12.43;8.63;;;19.50;99.90;;;;;;4994565;28;20115;-73
2023/06/22 01:18:05;;;;;;;11.82;8.73;;;19.50;99.90;;;;;;4996031;28;20053;-74
2023/06/22 01:20:35;;;;;;;12.47;9.20;;;19.50;99.90;;;;;;4983067;28;20145;-74
2023/06/22 01:23:33;;;;;;;11.02;7.32;;;19.50;99.90;;;;;;5011867;28;20057;-73
2023/06/22 01:26:43;;;;;;;12.90;8.95;;;19.40;99.90;;;;;;5027726;28;20092;-73
2023/06/22 01:29:14;;;;;;;11.25;8.63;;;19.40;99.90;;;;;;4924221;29;20071;-74
2023/06/22 01:31:44;;;;;;;12.73;8.80;;;19.40;99.90;;;;;;4928158;29;20079;-74
2023/06/22 01:34:12;;;;;;;9.45;7.82;;;19.30;99.90;;;;;;4925584;29;20059;-74
2023/06/22 01:36:41;;;;;;;12.35;9.13;;;19.30;99.90;;;;;;4945829;29;20055;-74
2023/06/22 01:39:09;;;;;;;12.15;8.45;;;19.30;99.90;;;;;;4949813;29;20083;-74
2023/06/22 01:41:38;;;;;;;10.73;8.52;;;19.30;99.90;;;;;;4934076;28;20059;-74
2023/06/22 01:44:08;;;;;;;12.02;8.52;;;19.30;99.90;;;;;;4891633;29;20051;-74
2023/06/22 01:46:37;;;;;;;10.45;8.23;;;19.30;99.90;;;;;;4936165;29;20138;-74
2023/06/22 01:49:05;;;;;;;10.35;7.63;;;19.30;99.90;;;;;;4915777;29;20551;-74
2023/06/22 01:51:34;;;;;;;12.07;7.07;;;19.30;99.90;;;;;;4935718;29;20145;-74
2023/06/22 01:54:02;;;;;;;11.13;8.35;;;19.30;99.90;;;;;;4908695;29;20119;-74
2023/06/22 01:56:30;;;;;;;11.32;8.13;;;19.30;99.90;;;;;;4898195;29;20086;-73
2023/06/22 01:59:15;;;;;;;12.07;8.20;;;19.30;99.90;;;;;;4940381;28;20058;-74
2023/06/22 02:01:52;;;;;;;11.00;7.95;;;19.30;99.90;;;;;;5009763;28;20050;-73
2023/06/22 02:04:27;;;;;;;12.68;8.50;;;19.30;99.90;;;;;;5009720;28;20052;-74
2023/06/22 02:06:59;;;;;;;10.68;8.45;;;19.30;99.90;;;;;;5009315;28;20053;-74
2023/06/22 02:09:30;;;;;;;10.98;8.27;;;19.30;99.90;;;;;;5017772;28;20273;-74
2023/06/22 02:11:59;;;;;;;11.10;7.80;;;19.30;99.90;;;;;;4992042;28;20085;-73
2023/06/22 02:14:28;;;;;;;12.00;8.10;;;19.20;99.90;;;;;;5004385;28;20064;-74
2023/06/22 02:16:58;;;;;;;12.55;8.30;;;19.20;99.90;;;;;;5005470;28;20054;-74
2023/06/22 02:19:27;;;;;;;12.43;8.10;;;19.10;99.90;;;;;;5011311;28;20140;-73
2023/06/22 02:21:54;;;;;;;12.73;8.45;;;19.10;99.90;;;;;;5008789;28;20061;-74
2023/06/22 02:24:23;;;;;;;14.25;9.40;;;19.00;99.90;;;;;;4993554;28;20056;-74
2023/06/22 02:26:50;;;;;;;11.60;8.30;;;19.00;99.90;;;;;;5009148;28;20124;-73
2023/06/22 02:29:18;;;;;;;12.50;8.30;;;19.00;99.90;;;;;;5011334;28;20048;-73
2023/06/22 02:31:45;;;;;;;12.43;7.97;;;19.00;99.90;;;;;;4994092;28;20081;-73
2023/06/22 02:34:18;;;;;;;10.90;8.70;;;18.90;99.90;;;;;;4998700;28;20123;-74
2023/06/22 02:36:50;;;;;;;13.02;8.43;;;19.00;99.90;;;;;;5004872;28;20054;-74
2023/06/22 02:39:23;;;;;;;12.35;8.30;;;19.00;99.90;;;;;;4986323;28;20049;-74
2023/06/22 02:41:54;;;;;;;12.27;8.90;;;19.00;99.90;;;;;;5009946;28;20112;-74
2023/06/22 02:44:22;;;;;;;10.43;8.20;;;19.10;99.90;;;;;;4993469;28;20034;-74
2023/06/22 02:46:50;;;;;;;12.20;8.85;;;19.10;99.90;;;;;;5006474;28;20802;-74
2023/06/22 02:49:18;;;;;;;10.40;8.23;;;19.10;99.90;;;;;;4973040;28;20050;-74
2023/06/22 02:51:47;;;;;;;11.38;9.27;;;19.10;99.90;;;;;;5006041;28;20528;-73
2023/06/22 02:54:18;;;;;;;11.50;9.18;;;19.00;99.90;;;;;;5009343;28;20129;-73
2023/06/22 02:56:50;;;;;;;12.70;9.13;;;19.00;99.90;;;;;;5010885;28;20419;-73
2023/06/22 02:59:23;;;;;;;11.30;9.18;;;18.90;99.90;;;;;;4994466;28;20054;-73
2023/06/22 03:01:58;;;;;;;13.27;10.02;;;18.70;99.90;;;;;;4995358;28;20488;-73
2023/06/22 03:04:31;;;;;;;14.75;10.35;;;18.60;99.90;;;;;;5011642;28;20042;-74
2023/06/22 03:07:00;;;;;;;13.60;10.32;;;18.60;99.90;;;;;;4992006;28;20137;-74
2023/06/22 03:09:30;;;;;;;15.40;11.00;;;18.50;99.90;;;;;;5007925;28;20057;-75
2023/06/22 03:11:58;;;;;;;17.75;11.10;;;18.50;99.90;;;;;;5009295;28;20084;-74
2023/06/22 03:14:33;;;;;;;14.02;11.40;;;18.40;99.90;;;;;;4993772;28;20061;-74
2023/06/22 03:17:03;;;;;;;16.85;12.27;;;18.30;99.90;;;;;;4995568;28;20073;-75
2023/06/22 03:19:31;;;;;;;18.55;12.00;;;18.40;99.90;;;;;;4995752;28;20064;-75
2023/06/22 03:22:02;;;;;;;14.80;11.88;;;18.30;99.90;;;;;;5010517;28;20073;-74
2023/06/22 03:24:29;;;;;;;16.08;11.20;;;18.30;99.90;;;;;;5009642;28;20134;-74
2023/06/22 03:26:57;;;;;;;14.00;11.45;;;18.30;99.90;;;;;;5000827;28;20672;-75
2023/06/22 03:29:25;;;;;;;15.88;12.13;;;18.30;99.90;;;;;;4991545;28;20050;-74
2023/06/22 03:31:57;;;;;;;20.25;11.52;;;18.30;99.90;;;;;;4989573;28;20444;-75
2023/06/22 03:34:26;;;;;;;17.45;11.32;;;18.40;99.90;;;;;;5006989;28;20104;-74
2023/06/22 03:36:54;;;;;;;16.17;11.52;;;18.40;99.90;;;;;;5008121;28;20441;-74
2023/06/22 03:39:22;;;;;;;17.73;11.02;;;18.40;99.90;;;;;;4988318;28;20054;-74
2023/06/22 03:41:49;;;;;;;15.93;10.85;;;18.40;99.90;;;;;;4978978;28;20082;-75
2023/06/22 03:44:18;;;;;;;17.30;11.20;;;18.50;99.90;;;;;;4975932;28;20434;-75
2023/06/22 03:46:45;;;;;;;15.95;10.55;;;18.60;99.90;;;;;;5011033;28;20057;-75
2023/06/22 03:49:13;;;;;;;14.70;10.82;;;18.70;99.90;;;;;;5012389;28;20128;-74
2023/06/22 03:51:40;;;;;;;13.98;10.77;;;18.70;99.90;;;;;;5011858;28;20505;-75
2023/06/22 03:54:08;;;;;;;12.45;9.55;;;18.80;99.90;;;;;;4995883;28;20414;-75
2023/06/22 03:56:36;;;;;;;14.98;10.45;;;18.80;99.90;;;;;;4998515;28;20081;-75
2023/06/22 03:59:03;;;;;;;12.73;10.00;;;18.90;99.90;;;;;;5012190;28;20058;-75
2023/06/22 04:01:31;;;;;;;12.23;9.75;;;18.90;99.90;;;;;;5011178;28;20050;-75
2023/06/22 04:03:58;;;;;;;12.25;9.77;;;18.90;99.90;;;;;;5010613;28;20159;-74
2023/06/22 04:06:26;;;;;;;12.00;9.38;;;19.00;99.90;;;;;;5023389;28;20559;-74
2023/06/22 04:08:54;;;;;;;12.07;9.77;;;19.10;99.90;;;;;;5014380;28;20154;-74
2023/06/22 04:11:21;;;;;;;13.95;9.68;;;19.10;99.90;;;;;;5009900;28;20160;-73
2023/06/22 04:13:51;;;;;;;14.02;10.80;;;19.20;99.90;;;;;;4995699;28;20583;-74
2023/06/22 04:16:18;;;;;;;15.95;9.57;;;19.20;99.90;;;;;;5018909;28;20076;-74
2023/06/22 04:18:46;;;;;;;12.07;9.05;;;19.30;99.90;;;;;;4978772;28;20054;-74
2023/06/22 04:21:14;;;;;;;13.15;10.18;;;19.30;99.90;;;;;;5002164;28;20065;-74
2023/06/22 04:23:42;;;;;;;12.40;9.18;;;19.40;99.90;;;;;;5007272;28;20074;-74
2023/06/22 04:26:10;;;;;;;12.50;9.13;;;19.40;99.90;;;;;;5010364;28;20354;-73
2023/06/22 04:28:38;;;;;;;11.45;9.05;;;19.50;99.90;;;;;;5010365;28;20054;-74
2023/06/22 04:31:05;;;;;;;10.55;9.25;;;19.50;99.90;;;;;;4994526;28;20140;-73
2023/06/22 04:33:33;;;;;;;13.50;8.25;;;19.60;99.90;;;;;;5010851;28;20772;-74
2023/06/22 04:36:02;;;;;;;13.75;9.25;;;19.70;99.90;;;;;;4996413;28;20441;-73
2023/06/22 04:38:33;;;;;;;13.13;9.00;;;19.80;99.90;;;;;;5012015;28;20046;-74
2023/06/22 04:41:03;;;;;;;12.82;9.27;;;19.80;99.90;;;;;;5011492;28;20093;-73
2023/06/22 04:43:30;;;;;;;12.65;8.45;;;19.90;99.90;;;;;;5019198;28;20100;-74
2023/06/22 04:46:03;;;;;;;15.90;9.18;;;19.90;99.90;;;;;;5014717;28;20057;-73
2023/06/22 04:48:33;;;;;;;12.95;9.18;;;20.00;99.90;;;;;;5006767;28;20073;-74
2023/06/22 04:51:04;;;;;;;13.77;9.68;;;20.10;99.90;;;;;;5010586;28;20526;-73
2023/06/22 04:53:32;;;;;;;13.43;9.52;;;20.10;99.90;;;;;;4994084;28;20061;-74
2023/06/22 04:55:59;;;;;;;11.93;9.55;;;20.10;99.90;;;;;;4997049;28;20053;-74
2023/06/22 04:58:28;;;;;;;12.55;9.52;;;20.10;99.90;;;;;;5019993;28;20046;-73
2023/06/22 05:00:57;;;;;;;15.48;9.32;;;20.20;99.90;;;;;;5012709;28;20041;-74
2023/06/22 05:03:26;;;;;;;12.63;8.65;;;20.30;99.90;;;;;;5011431;28;20180;-74
2023/06/22 05:05:54;;;;;;;12.05;9.00;;;20.40;99.90;;;;;;4995147;28;20128;-73
2023/06/22 05:08:21;;;;;;;14.05;10.00;;;20.50;99.90;;;;;;5010585;28;20080;-74
2023/06/22 05:10:48;;;;;;;11.95;9.35;;;20.50;99.90;;;;;;4973064;28;20050;-74
2023/06/22 05:13:31;;;;;;;15.63;10.45;;;20.60;99.90;;;;;;5004898;28;20584;-74
2023/06/22 05:16:01;;;;;;;12.93;9.85;;;20.60;99.90;;;;;;4978380;28;20148;-75
2023/06/22 05:18:32;;;;;;;14.02;9.95;;;20.60;99.90;;;;;;4992527;28;20075;-74
2023/06/22 05:21:00;;;;;;;15.32;10.43;;;20.80;99.90;;;;;;5000616;28;20584;-74
2023/06/22 05:23:28;;;;;;;12.38;10.15;;;20.80;99.90;;;;;;4991538;28;20058;-74
2023/06/22 05:25:57;;;;;;;14.73;11.15;;;20.90;99.90;;;;;;5008902;28;20069;-74
2023/06/22 05:28:27;;;;;;;13.15;9.57;;;21.00;99.90;;;;;;5012002;28;20049;-74
2023/06/22 05:30:54;;;;;;;15.32;9.80;;;21.10;99.90;;;;;;4993599;28;20050;-74
2023/06/22 05:33:25;;;;;;;15.45;10.95;;;21.20;99.90;;;;;;5012595;28;20038;-75
2023/06/22 05:35:52;;;;;;;18.92;12.57;;;21.30;99.90;;;;;;4992317;28;20343;-74
2023/06/22 05:38:20;;;;;;;17.02;10.88;;;21.30;99.90;;;;;;5010431;28;20050;-74
2023/06/22 05:40:47;;;;;;;13.35;10.43;;;21.30;99.90;;;;;;4977784;28;20090;-74
2023/06/22 05:43:15;;;;;;;13.35;9.93;;;21.40;99.90;;;;;;4977973;28;20042;-74
2023/06/22 05:45:42;;;;;;;13.80;10.13;;;21.50;99.90;;;;;;5011410;28;20132;-75
2023/06/22 05:48:10;;;;;;;12.52;10.52;;;21.60;99.90;;;;;;5002936;28;20045;-74
2023/06/22 05:50:37;;;;;;;13.30;10.45;;;21.70;99.90;;;;;;5006907;28;20125;-74
2023/06/22 05:53:06;;;;;;;13.43;11.57;;;21.80;99.90;;;;;;5009211;28;20073;-74
2023/06/22 05:55:34;;;;;;;16.50;13.43;;;22.00;99.90;;;;;;4994926;28;20077;-74
2023/06/22 05:58:03;;;;;;;17.30;10.40;;;22.10;99.90;;;;;;5010634;28;20159;-75
2023/06/22 06:00:30;;;;;;;14.45;10.55;;;22.10;99.90;;;;;;5025606;28;20124;-74
2023/06/22 06:03:02;;;;;;;12.20;9.70;;;22.30;99.90;;;;;;4974781;28;20145;-74
2023/06/22 06:05:34;;;;;;;14.02;9.93;;;22.30;99.90;;;;;;5010781;28;20037;-74
2023/06/22 06:08:04;;;;;;;12.68;10.27;;;22.40;99.90;;;;;;5010036;28;20391;-74
2023/06/22 06:10:33;;;;;;;13.52;10.18;;;22.50;99.90;;;;;;4993583;28;20112;-74
2023/06/22 06:13:07;;;;;;;14.98;11.10;;;22.50;99.90;;;;;;4975448;28;20514;-73
2023/06/22 06:15:35;;;;;;;12.40;9.00;;;22.70;99.90;;;;;;4977282;28;20084;-73
2023/06/22 06:18:04;;;;;;;13.75;10.07;;;22.70;99.90;;;;;;5011140;28;20062;-73
2023/06/22 06:20:33;;;;;;;12.65;9.82;;;22.80;99.90;;;;;;4995896;28;20590;-74
2023/06/22 06:23:01;;;;;;;12.00;9.38;;;22.90;99.90;;;;;;5007202;28;20049;-73
2023/06/22 06:25:29;;;;;;;12.68;10.07;;;23.00;99.90;;;;;;5019051;28;20480;-74
2023/06/22 06:27:57;;;;;;;35.90;24.45;;;23.20;99.90;;;;;;4982612;28;20453;-74
2023/06/22 06:30:25;;;;;;;12.18;10.15;;;23.30;99.90;;;;;;5005422;28;20132;-74
2023/06/22 06:32:52;;;;;;;11.32;9.30;;;23.20;99.90;;;;;;4991540;28;20141;-73
2023/06/22 06:35:21;;;;;;;13.32;9.98;;;23.40;99.90;;;;;;5008580;28;20054;-73
2023/06/22 06:37:50;;;;;;;12.07;9.32;;;23.50;99.90;;;;;;5008738;28;20441;-73
2023/06/22 06:40:18;;;;;;;13.70;10.32;;;23.60;99.90;;;;;;4992557;28;20057;-73
2023/06/22 06:42:47;;;;;;;13.85;10.60;;;23.70;99.90;;;;;;5000273;28;20448;-74
2023/06/22 06:45:25;;;;;;;13.13;9.88;;;23.70;99.90;;;;;;4994184;28;20399;-74
2023/06/22 06:47:52;;;;;;;12.10;8.93;;;23.80;99.90;;;;;;4992366;28;20053;-73
2023/06/22 06:50:24;;;;;;;13.68;10.40;;;23.90;99.90;;;;;;5011165;28;20575;-74
2023/06/22 06:52:51;;;;;;;11.90;9.75;;;24.00;99.90;;;;;;5007744;28;20054;-74
2023/06/22 06:55:20;;;;;;;10.85;8.90;;;24.00;99.90;;;;;;4994417;28;20054;-74
2023/06/22 06:57:48;;;;;;;12.07;9.35;;;24.20;99.90;;;;;;5010738;28;20050;-74
2023/06/22 07:00:16;;;;;;;10.82;9.05;;;24.20;99.90;;;;;;5010941;28;20072;-73
2023/06/22 07:02:45;;;;;;;13.20;9.65;;;24.40;99.90;;;;;;4999296;28;20502;-74
2023/06/22 07:05:13;;;;;;;13.55;9.82;;;24.50;99.90;;;;;;5017985;28;20058;-75
2023/06/22 07:07:41;;;;;;;10.60;9.10;;;24.60;99.90;;;;;;5008580;28;20058;-75
2023/06/22 07:10:09;;;;;;;10.70;8.90;;;24.70;99.90;;;;;;4969071;28;20048;-75
2023/06/22 07:12:37;;;;;;;12.77;9.60;;;24.80;99.90;;;;;;4992013;28;20057;-75
2023/06/22 07:15:09;;;;;;;10.85;8.93;;;24.90;99.90;;;;;;5012210;28;20216;-75
2023/06/22 07:17:40;;;;;;;12.35;9.32;;;24.90;99.90;;;;;;4993622;28;20058;-74
2023/06/22 07:20:10;;;;;;;11.82;10.55;;;25.10;99.90;;;;;;5011979;28;20045;-75
2023/06/22 07:22:39;;;;;;;11.55;9.27;;;25.10;99.90;;;;;;5014565;28;20054;-75
2023/06/22 07:25:10;;;;;;;13.88;9.43;;;25.30;99.90;;;;;;4978727;28;20046;-74
2023/06/22 07:27:45;;;;;;;14.93;9.17;;;25.30;99.90;;;;;;5012607;28;20054;-74
2023/06/22 07:30:13;;;;;;;11.13;8.85;;;25.40;99.90;;;;;;5012008;28;20053;-75
2023/06/22 07:32:41;;;;;;;11.02;9.07;;;25.50;99.90;;;;;;5011709;28;20108;-75
2023/06/22 07:35:09;;;;;;;11.95;9.02;;;25.60;99.90;;;;;;5017552;28;20133;-75
2023/06/22 07:37:37;;;;;;;14.98;9.80;;;25.70;99.90;;;;;;5012931;28;20058;-75
2023/06/22 07:40:06;;;;;;;14.02;10.13;;;25.90;99.90;;;;;;5012266;28;20046;-74
2023/06/22 07:42:34;;;;;;;12.75;9.82;;;25.90;99.90;;;;;;5012659;28;20104;-75
2023/06/22 07:45:04;;;;;;;13.32;8.65;;;26.10;99.90;;;;;;4979373;28;20058;-75
2023/06/22 07:47:34;;;;;;;12.38;9.55;;;26.20;99.90;;;;;;4995964;28;20568;-75
2023/06/22 07:50:03;;;;;;;10.70;9.00;;;26.20;99.90;;;;;;5011478;28;20077;-75
2023/06/22 07:52:31;;;;;;;13.50;8.88;;;26.20;99.90;;;;;;5013506;28;20373;-75
2023/06/22 07:54:59;;;;;;;12.18;9.20;;;26.30;99.90;;;;;;5011554;28;20300;-74
2023/06/22 07:57:33;;;;;;;11.02;8.57;;;26.40;99.90;;;;;;5014861;28;20054;-75
2023/06/22 08:00:06;;;;;;;11.02;8.32;;;26.50;99.90;;;;;;5012705;28;20054;-74
2023/06/22 08:02:39;;;;;;;12.50;8.50;;;26.70;99.90;;;;;;5014313;28;20088;-75
2023/06/22 08:05:09;;;;;;;11.05;8.52;;;26.80;99.90;;;;;;4998577;28;20084;-74
2023/06/22 08:07:48;;;;;;;10.40;8.38;;;26.80;99.90;;;;;;4993824;28;20223;-75
2023/06/22 08:10:17;;;;;;;9.82;8.30;;;26.90;99.90;;;;;;5012424;28;20054;-74
2023/06/22 08:12:44;;;;;;;10.80;8.23;;;27.00;99.90;;;;;;5020130;28;20054;-74
2023/06/22 08:15:12;;;;;;;9.38;8.18;;;27.20;99.90;;;;;;5012342;28;20112;-74
2023/06/22 08:17:40;;;;;;;10.90;8.30;;;27.30;99.90;;;;;;4992954;28;20528;-75
2023/06/22 08:20:17;;;;;;;11.02;8.18;;;27.40;99.90;;;;;;5015874;28;20374;-74
2023/06/22 08:22:45;;;;;;;9.82;7.70;;;27.60;99.90;;;;;;5013782;28;20045;-74
2023/06/22 08:25:13;;;;;;;8.40;7.45;;;27.70;99.90;;;;;;5006719;28;20077;-74
2023/06/22 08:27:40;;;;;;;9.80;7.15;;;27.80;99.90;;;;;;4996033;28;20081;-74
2023/06/22 08:30:10;;;;;;;10.32;7.72;;;27.90;99.90;;;;;;5004544;28;20117;-74
2023/06/22 08:32:38;;;;;;;11.88;8.68;;;28.10;99.90;;;;;;4996368;28;20076;-74
2023/06/22 08:35:09;;;;;;;9.75;8.75;;;28.20;99.90;;;;;;4994428;28;20062;-74
2023/06/22 08:37:38;;;;;;;9.82;8.10;;;28.30;99.90;;;;;;5009876;28;20058;-73
2023/06/22 08:40:09;;;;;;;8.80;7.90;;;28.40;99.90;;;;;;5011743;28;20548;-74
2023/06/22 08:42:40;;;;;;;9.20;7.95;;;28.40;99.90;;;;;;4998902;28;20061;-74
2023/06/22 08:45:21;;;;;;;10.23;7.85;;;28.50;99.90;;;;;;5004462;28;20136;-74
2023/06/22 08:47:49;;;;;;;10.70;8.65;;;28.30;99.90;;;;;;5001883;28;20525;-74
2023/06/22 08:50:16;;;;;;;9.73;7.97;;;28.40;99.90;;;;;;5011483;28;20413;-74
2023/06/22 08:52:45;;;;;;;48.22;10.98;;;28.50;99.90;;;;;;4994388;28;20569;-74
2023/06/22 08:55:14;;;;;;;14.25;8.88;;;28.50;99.90;;;;;;4994037;28;20054;-74
2023/06/22 08:57:42;;;;;;;10.68;7.50;;;28.60;99.90;;;;;;4996099;28;20053;-74
2023/06/22 09:00:16;;;;;;;23.73;19.80;;;28.80;99.90;;;;;;5009338;28;20070;-74
2023/06/22 09:02:45;;;;;;;10.57;8.27;;;28.90;99.90;;;;;;5011256;28;20038;-74
2023/06/22 09:05:13;;;;;;;11.20;8.00;;;29.00;99.90;;;;;;4980483;28;20413;-74
2023/06/22 09:07:43;;;;;;;10.80;8.20;;;29.00;99.90;;;;;;5011122;28;20049;-74
2023/06/22 09:10:10;;;;;;;10.95;8.40;;;29.20;99.90;;;;;;5001993;28;20049;-74
2023/06/22 09:12:39;;;;;;;10.60;8.48;;;29.30;99.90;;;;;;4991327;28;20057;-74
2023/06/22 09:15:07;;;;;;;13.45;8.75;;;29.50;99.90;;;;;;5009491;28;20068;-73
2023/06/22 09:17:41;;;;;;;13.18;8.30;;;29.60;99.90;;;;;;4998683;28;20286;-73
2023/06/22 09:20:10;;;;;;;9.93;8.13;;;29.70;99.90;;;;;;5008176;28;20115;-73
2023/06/22 09:22:38;;;;;;;13.00;8.00;;;29.80;99.90;;;;;;4994934;28;20089;-74
2023/06/22 09:25:06;;;;;;;11.95;8.45;;;30.10;99.90;;;;;;5011991;28;20057;-73
2023/06/22 09:27:34;;;;;;;11.93;8.18;;;30.30;99.90;;;;;;5016121;28;20042;-73
2023/06/22 09:30:03;;;;;;;13.00;8.13;;;30.50;99.90;;;;;;4993197;28;20041;-74
2023/06/22 09:32:31;;;;;;;11.02;8.18;;;30.50;99.90;;;;;;4993921;28;20484;-74
2023/06/22 09:34:58;;;;;;;9.98;8.35;;;30.60;99.90;;;;;;4993493;28;20062;-74
2023/06/22 09:37:26;;;;;;;14.07;9.05;;;30.80;99.90;;;;;;5011341;28;20140;-74
2023/06/22 09:39:54;;;;;;;11.20;8.65;;;30.80;99.90;;;;;;4992384;28;20046;-74
2023/06/22 09:42:22;;;;;;;12.57;9.30;;;30.90;99.90;;;;;;4994969;28;20050;-74
2023/06/22 09:44:49;;;;;;;11.10;8.80;;;30.70;99.90;;;;;;5010010;28;20113;-73
2023/06/22 09:47:17;;;;;;;13.82;9.00;;;30.60;99.90;;;;;;4998218;28;20051;-74
2023/06/22 09:49:45;;;;;;;11.73;9.40;;;30.80;99.90;;;;;;5013687;28;20053;-74
2023/06/22 09:52:16;;;;;;;13.30;9.20;;;31.00;99.90;;;;;;5013796;28;20045;-74
2023/06/22 09:54:45;;;;;;;14.82;8.57;;;31.20;99.90;;;;;;4997356;28;20145;-74
2023/06/22 09:57:12;;;;;;;12.07;9.30;;;31.30;99.90;;;;;;5014583;28;20053;-74
2023/06/22 09:59:40;;;;;;;13.60;9.05;;;31.30;99.90;;;;;;5010702;28;20100;-74
2023/06/22 10:02:08;;;;;;;12.57;9.52;;;31.50;99.90;;;;;;5009510;28;20057;-74
2023/06/22 10:04:37;;;;;;;12.65;8.95;;;31.60;99.90;;;;;;5014365;28;20050;-74
2023/06/22 10:07:05;;;;;;;11.00;8.52;;;31.60;99.90;;;;;;5005253;28;20068;-74
2023/06/22 10:09:33;;;;;;;15.93;12.25;;;31.80;99.90;;;;;;5016966;28;20069;-75
2023/06/22 10:12:01;;;;;;;10.68;9.25;;;31.90;99.90;;;;;;4993134;28;20066;-74
2023/06/22 10:14:29;;;;;;;13.95;9.07;;;32.00;99.90;;;;;;5011820;28;20478;-74
2023/06/22 10:16:57;;;;;;;11.05;8.80;;;32.00;99.90;;;;;;5012122;28;20084;-74
2023/06/22 10:19:26;;;;;;;14.45;9.15;;;32.10;99.90;;;;;;5011628;28;20099;-74
2023/06/22 10:21:53;;;;;;;13.93;9.23;;;32.20;99.90;;;;;;5010345;28;20049;-74
2023/06/22 10:24:21;;;;;;;14.82;9.52;;;32.30;99.90;;;;;;4993455;28;20072;-75
2023/06/22 10:26:48;;;;;;;10.45;9.13;;;32.30;99.90;;;;;;5010458;28;20050;-74
2023/06/22 10:29:16;;;;;;;12.25;9.20;;;32.40;99.90;;;;;;5014001;28;20052;-74
2023/06/22 10:31:43;;;;;;;10.93;8.95;;;32.50;99.90;;;;;;5012578;28;20319;-74
2023/06/22 10:34:11;;;;;;;12.05;9.57;;;32.70;99.90;;;;;;5009751;28;20042;-74
2023/06/22 10:36:39;;;;;;;14.85;9.60;;;32.90;99.90;;;;;;5008288;28;20135;-74
2023/06/22 10:39:07;;;;;;;10.15;8.90;;;33.00;99.90;;;;;;5008592;28;20132;-75
2023/06/22 10:41:35;;;;;;;11.00;9.05;;;33.30;99.90;;;;;;5010843;28;20068;-74
2023/06/22 10:44:03;;;;;;;12.43;9.15;;;33.20;99.90;;;;;;5015660;28;20049;-74
2023/06/22 10:46:30;;;;;;;12.90;9.63;;;33.30;99.90;;;;;;5010724;28;20077;-75
2023/06/22 10:48:58;;;;;;;14.98;9.20;;;33.50;99.90;;;;;;5007472;28;20046;-74
2023/06/22 10:51:28;;;;;;;13.60;9.27;;;33.50;99.90;;;;;;4988790;28;20044;-74
2023/06/22 10:53:55;;;;;;;9.98;8.75;;;33.80;99.90;;;;;;5006736;28;20080;-74
2023/06/22 10:56:23;;;;;;;12.60;9.20;;;33.90;99.90;;;;;;5011934;28;20111;-75
2023/06/22 10:58:50;;;;;;;12.90;9.63;;;33.70;99.90;;;;;;4997970;28;20088;-74
2023/06/22 11:01:20;;;;;;;12.30;9.23;;;33.70;99.90;;;;;;4992331;28;20046;-74
2023/06/22 11:04:04;;;;;;;10.40;9.35;;;33.80;99.90;;;;;;5009134;28;20104;-74
2023/06/22 11:06:32;;;;;;;12.10;10.30;;;34.30;99.90;;;;;;5008694;28;20591;-74
2023/06/22 11:08:59;;;;;;;11.82;9.55;;;34.60;99.90;;;;;;5007722;28;20052;-74
2023/06/22 11:11:30;;;;;;;16.00;9.97;;;34.90;99.40;;;;;;4991690;28;20051;-74
2023/06/22 11:13:58;;;;;;;10.98;9.38;;;35.20;98.80;;;;;;5006729;28;20050;-74
2023/06/22 11:16:26;;;;;;;14.85;8.90;;;35.50;98.10;;;;;;5002102;28;20050;-74
2023/06/22 11:18:54;;;;;;;13.15;9.73;;;35.80;97.30;;;;;;4990933;28;20592;-74
2023/06/22 11:21:22;;;;;;;10.52;9.38;;;36.10;96.40;;;;;;4999606;28;20038;-75
2023/06/22 11:23:50;;;;;;;13.32;9.38;;;36.20;96.00;;;;;;5008006;28;20058;-74
2023/06/22 11:26:18;;;;;;;9.73;8.68;;;36.30;95.00;;;;;;5007230;28;20140;-74
2023/06/22 11:28:46;;;;;;;10.60;9.48;;;36.40;94.40;;;;;;5010065;28;20046;-74
2023/06/22 11:31:14;;;;;;;10.43;9.32;;;36.60;94.20;;;;;;5014879;28;20073;-73
2023/06/22 11:33:53;;;;;;;10.23;9.15;;;36.60;94.30;;;;;;5007661;28;20148;-74
2023/06/22 11:36:21;;;;;;;12.82;8.73;;;36.80;93.50;;;;;;4974878;28;20068;-74
2023/06/22 11:38:48;;;;;;;16.95;10.13;;;37.10;92.80;;;;;;5007844;28;20046;-74
2023/06/22 11:41:18;;;;;;;18.30;10.15;;;37.50;91.70;;;;;;4999123;28;20042;-74
2023/06/22 11:43:46;;;;;;;14.07;9.93;;;37.70;91.40;;;;;;5010613;28;20409;-74
2023/06/22 11:46:13;;;;;;;15.10;9.60;;;37.90;90.60;;;;;;5007619;28;20150;-73
2023/06/22 11:48:41;;;;;;;13.07;9.10;;;38.10;89.50;;;;;;5008744;28;20053;-73
2023/06/22 11:51:09;;;;;;;12.80;9.20;;;38.30;89.10;;;;;;4990734;28;20399;-73
2023/06/22 11:53:37;;;;;;;11.85;9.02;;;38.70;88.40;;;;;;5007313;28;20072;-73
2023/06/22 11:56:05;;;;;;;19.17;9.30;;;39.00;86.30;;;;;;5008181;28;20136;-74
2023/06/22 11:58:34;;;;;;;16.70;9.85;;;39.20;84.50;;;;;;4992020;28;20481;-74
2023/06/22 12:01:02;;;;;;;12.18;8.80;;;39.40;83.00;;;;;;5009807;28;20446;-73
2023/06/22 12:03:30;;;;;;;11.80;8.52;;;39.70;81.90;;;;;;4995653;28;20517;-73
2023/06/22 12:05:59;;;;;;;12.45;8.75;;;39.50;81.20;;;;;;4995902;28;20101;-74
2023/06/22 12:08:27;;;;;;;12.77;9.38;;;39.50;80.00;;;;;;5017913;28;20061;-73
2023/06/22 12:10:56;;;;;;;13.73;9.10;;;39.80;79.50;;;;;;5012911;28;20128;-74
2023/06/22 12:13:23;;;;;;;12.77;10.23;;;40.30;78.30;;;;;;4995330;28;20464;-72
2023/06/22 12:15:54;;;;;;;15.77;9.50;;;40.20;77.30;;;;;;4978071;28;20160;-73
2023/06/22 12:18:22;;;;;;;14.97;9.17;;;40.50;76.80;;;;;;5009767;28;20497;-73
2023/06/22 12:20:49;;;;;;;12.90;9.50;;;40.70;76.20;;;;;;5010079;28;20054;-73
2023/06/22 12:23:17;;;;;;;12.82;8.63;;;41.20;74.70;;;;;;5011567;28;20502;-75
2023/06/22 12:25:45;;;;;;;13.93;9.20;;;41.80;72.90;;;;;;5010915;28;20567;-74
2023/06/22 12:28:13;;;;;;;15.90;9.23;;;41.90;72.40;;;;;;4994829;28;20062;-74
2023/06/22 12:30:40;;;;;;;13.38;9.50;;;42.30;71.40;;;;;;5009396;28;20057;-75
2023/06/22 12:33:07;;;;;;;11.80;9.43;;;42.70;70.70;;;;;;5011222;28;20050;-75
2023/06/22 12:35:35;;;;;;;11.63;8.77;;;42.90;68.80;;;;;;5011952;28;20142;-74
2023/06/22 12:38:06;;;;;;;13.93;9.10;;;42.70;68.30;;;;;;5012774;28;20181;-73
2023/06/22 12:40:33;;;;;;;13.63;8.93;;;42.60;68.50;;;;;;4995723;28;20088;-73
2023/06/22 12:43:04;;;;;;;12.23;9.67;;;42.40;67.00;;;;;;5010980;28;20054;-73
2023/06/22 12:45:33;;;;;;;14.23;9.73;;;42.60;66.90;;;;;;4994760;28;20046;-73